Time;durP1;ratioP1;P1;durP2;ratioP2;P2;SDS_P1;SDS_P2;PMS_P1;PMS_P2;Temp;Humidity;BMP_temperature;BMP_pressure;BME280_temperature;BME280_humidity;BME280_pressure;Samples;Min_cycle;Max_cycle;Signal;HPM_P1;HPM_P2
2021/05/01 00:00:26;;;;;;;4.68;4.13;;;21.80;77.90;;;;;;4959463;28;20023;-66
2021/05/01 00:02:53;;;;;;;8.05;3.95;;;21.90;77.60;;;;;;4976508;28;20082;-68
2021/05/01 00:05:20;;;;;;;6.18;3.58;;;22.00;77.20;;;;;;4959221;28;20335;-67
2021/05/01 00:07:48;;;;;;;5.90;3.38;;;22.00;76.40;;;;;;4976295;28;20114;-69
2021/05/01 00:10:15;;;;;;;4.15;3.45;;;22.00;75.60;;;;;;4975701;28;20545;-68
2021/05/01 00:12:43;;;;;;;3.67;3.25;;;22.00;75.90;;;;;;4975845;28;20034;-67
2021/05/01 00:15:12;;;;;;;4.20;2.88;;;22.00;76.60;;;;;;4977890;28;20113;-65
2021/05/01 00:17:39;;;;;;;3.22;2.92;;;22.00;76.30;;;;;;4976527;28;20060;-68
2021/05/01 00:20:08;;;;;;;6.45;3.10;;;22.10;75.90;;;;;;4976667;28;20041;-66
2021/05/01 00:22:35;;;;;;;5.05;3.22;;;22.20;75.60;;;;;;4976072;28;20027;-66
2021/05/01 00:25:03;;;;;;;7.15;3.22;;;22.40;75.30;;;;;;4976154;28;20055;-67
2021/05/01 00:27:31;;;;;;;3.47;3.00;;;22.50;75.60;;;;;;4975083;28;20377;-67
2021/05/01 00:29:58;;;;;;;7.03;3.45;;;22.60;74.10;;;;;;4974955;28;20045;-68
2021/05/01 00:32:26;;;;;;;5.97;3.35;;;22.80;73.80;;;;;;4975276;28;20023;-68
2021/05/01 00:34:53;;;;;;;4.45;3.15;;;22.80;74.40;;;;;;4975337;28;20407;-67
2021/05/01 00:37:20;;;;;;;5.47;3.50;;;23.00;75.80;;;;;;4975271;28;20027;-66
2021/05/01 00:39:47;;;;;;;3.45;3.03;;;22.90;74.50;;;;;;4975155;28;20023;-69
2021/05/01 00:42:15;;;;;;;4.78;3.25;;;23.00;72.80;;;;;;4975266;28;20034;-67
2021/05/01 00:44:42;;;;;;;6.25;3.40;;;23.30;74.30;;;;;;4975016;28;20034;-67
2021/05/01 00:47:10;;;;;;;3.88;2.85;;;23.40;71.70;;;;;;4974740;28;20117;-67
2021/05/01 00:49:37;;;;;;;5.20;3.65;;;23.20;71.60;;;;;;4957464;28;20509;-66
2021/05/01 00:52:05;;;;;;;3.15;2.85;;;23.40;73.90;;;;;;4974644;28;20118;-66
2021/05/01 00:54:32;;;;;;;3.70;2.63;;;23.30;71.20;;;;;;4974926;28;20015;-67
2021/05/01 00:56:59;;;;;;;3.53;2.97;;;23.50;72.00;;;;;;4957907;28;20382;-68
2021/05/01 00:59:27;;;;;;;6.65;3.72;;;23.70;70.40;;;;;;4974934;28;20041;-68
2021/05/01 01:01:55;;;;;;;3.63;3.15;;;23.60;70.80;;;;;;4975059;28;20026;-66
2021/05/01 01:04:23;;;;;;;6.85;3.40;;;23.50;69.80;;;;;;4974689;28;20411;-66
2021/05/01 01:06:50;;;;;;;4.97;2.83;;;23.60;71.50;;;;;;4974795;28;20086;-70
2021/05/01 01:09:18;;;;;;;5.10;3.00;;;23.50;70.80;;;;;;4974669;28;20019;-67
2021/05/01 01:11:46;;;;;;;8.35;3.60;;;23.50;71.50;;;;;;4974408;28;20030;-67
2021/05/01 01:14:14;;;;;;;3.42;2.50;;;23.50;71.40;;;;;;4957581;28;20045;-68
2021/05/01 01:16:45;;;;;;;5.43;2.85;;;23.60;71.20;;;;;;4974810;28;20110;-66
2021/05/01 01:19:14;;;;;;;3.35;3.05;;;23.70;70.50;;;;;;4974729;28;20055;-66
2021/05/01 01:21:47;;;;;;;3.33;2.67;;;23.60;71.30;;;;;;4974270;28;20106;-67
2021/05/01 01:24:15;;;;;;;4.53;2.78;;;23.60;71.20;;;;;;4974480;28;20031;-66
2021/05/01 01:26:43;;;;;;;3.20;2.80;;;23.70;71.50;;;;;;4974358;28;20039;-67
2021/05/01 01:29:14;;;;;;;3.90;2.42;;;23.80;70.60;;;;;;4974609;28;20019;-65
2021/05/01 01:31:43;;;;;;;3.55;2.47;;;24.00;70.00;;;;;;4974546;28;20035;-66
2021/05/01 01:34:10;;;;;;;3.75;2.17;;;24.20;69.50;;;;;;4973363;28;20422;-67
2021/05/01 01:36:38;;;;;;;5.32;2.38;;;24.20;69.80;;;;;;4956670;28;20023;-65
2021/05/01 01:39:06;;;;;;;5.05;2.53;;;24.10;68.70;;;;;;4973907;28;20107;-67
2021/05/01 01:41:33;;;;;;;3.70;2.53;;;24.10;68.30;;;;;;4973765;28;20058;-65
2021/05/01 01:44:00;;;;;;;3.72;2.17;;;24.10;68.80;;;;;;4973734;28;20067;-69
2021/05/01 01:46:28;;;;;;;7.45;2.53;;;24.10;68.60;;;;;;4973739;28;20035;-67
2021/05/01 01:48:56;;;;;;;7.53;2.28;;;23.90;69.30;;;;;;4956102;28;20033;-67
2021/05/01 01:51:23;;;;;;;3.13;2.20;;;23.80;70.50;;;;;;4973615;28;20030;-66
2021/05/01 01:53:51;;;;;;;3.80;2.70;;;23.80;71.90;;;;;;4973029;28;20560;-69
2021/05/01 01:56:18;;;;;;;3.80;2.25;;;23.70;70.80;;;;;;4973351;28;20030;-66
2021/05/01 01:58:45;;;;;;;3.13;2.28;;;23.50;71.10;;;;;;4956124;28;20555;-68
2021/05/01 02:01:13;;;;;;;4.18;2.60;;;23.50;71.40;;;;;;4972907;28;20034;-69
2021/05/01 02:03:40;;;;;;;3.60;2.17;;;23.30;72.10;;;;;;4972270;28;20382;-66
2021/05/01 02:06:08;;;;;;;3.38;2.35;;;23.20;72.50;;;;;;4973043;28;20030;-66
2021/05/01 02:08:35;;;;;;;4.25;2.20;;;23.20;72.80;;;;;;4972767;28;20034;-66
2021/05/01 02:11:03;;;;;;;3.38;2.10;;;23.10;73.10;;;;;;4972824;28;20027;-67
2021/05/01 02:13:30;;;;;;;3.38;2.67;;;23.00;73.60;;;;;;4973079;28;20458;-67
2021/05/01 02:15:58;;;;;;;3.20;2.30;;;22.80;74.40;;;;;;4972999;28;20023;-67
2021/05/01 02:18:25;;;;;;;3.65;2.38;;;22.90;74.90;;;;;;4973223;28;20038;-68
2021/05/01 02:20:53;;;;;;;4.03;2.20;;;22.80;75.60;;;;;;4972945;28;20101;-68
2021/05/01 02:23:20;;;;;;;3.42;2.55;;;22.80;75.30;;;;;;4972672;28;20121;-67
2021/05/01 02:25:47;;;;;;;5.13;2.20;;;22.80;75.20;;;;;;4972509;28;20082;-67
2021/05/01 02:28:17;;;;;;;5.32;2.00;;;22.80;75.30;;;;;;4973147;28;20042;-68
2021/05/01 02:30:46;;;;;;;2.63;1.70;;;22.80;75.80;;;;;;4973268;28;20038;-66
2021/05/01 02:33:13;;;;;;;2.65;2.22;;;22.70;77.30;;;;;;4972967;28;20027;-68
2021/05/01 02:35:42;;;;;;;4.53;2.08;;;22.70;77.20;;;;;;4971068;28;20035;-64
2021/05/01 02:38:10;;;;;;;4.88;2.53;;;22.90;77.20;;;;;;4951090;28;20030;-63
2021/05/01 02:40:37;;;;;;;3.05;2.20;;;23.10;75.60;;;;;;4962393;28;20026;-65
2021/05/01 02:43:10;;;;;;;3.60;2.30;;;23.20;75.80;;;;;;4968172;28;20019;-59
2021/05/01 02:45:38;;;;;;;3.17;2.30;;;23.40;75.00;;;;;;4969106;28;20037;-64
2021/05/01 02:48:07;;;;;;;4.97;2.15;;;23.40;73.70;;;;;;4968688;28;20039;-64
2021/05/01 02:50:34;;;;;;;6.47;2.17;;;23.50;72.90;;;;;;4964515;28;20548;-67
2021/05/01 02:53:01;;;;;;;2.40;2.00;;;23.50;73.20;;;;;;4969236;28;20046;-66
2021/05/01 02:55:29;;;;;;;2.83;2.30;;;23.40;73.80;;;;;;4967170;28;20027;-63
2021/05/01 02:57:56;;;;;;;4.18;2.22;;;23.40;74.60;;;;;;4964826;28;20435;-65
2021/05/01 03:00:27;;;;;;;3.75;1.80;;;23.40;74.90;;;;;;4966174;28;20027;-67
2021/05/01 03:02:55;;;;;;;3.13;2.10;;;23.50;73.50;;;;;;4967009;28;20039;-65
2021/05/01 03:05:24;;;;;;;3.13;1.85;;;23.50;73.70;;;;;;4966509;28;20749;-67
2021/05/01 03:07:52;;;;;;;2.90;1.85;;;23.70;74.10;;;;;;4966040;28;20078;-65
2021/05/01 03:10:25;;;;;;;3.20;2.22;;;23.80;73.60;;;;;;4946857;28;20080;-66
2021/05/01 03:12:54;;;;;;;3.03;1.75;;;23.80;72.30;;;;;;4966993;28;20027;-66
2021/05/01 03:15:22;;;;;;;3.20;1.85;;;24.00;73.10;;;;;;4970612;28;20038;-65
2021/05/01 03:17:50;;;;;;;2.40;1.60;;;24.10;72.30;;;;;;4969250;28;20034;-65
2021/05/01 03:20:18;;;;;;;3.60;1.98;;;24.30;71.50;;;;;;4967059;28;20030;-66
2021/05/01 03:22:49;;;;;;;4.15;2.47;;;24.40;70.60;;;;;;4970681;28;20045;-64
2021/05/01 03:25:20;;;;;;;4.57;2.38;;;24.30;70.50;;;;;;4969271;28;20031;-66
2021/05/01 03:27:47;;;;;;;4.80;1.80;;;24.20;70.70;;;;;;4969388;28;20181;-62
2021/05/01 03:30:17;;;;;;;3.60;2.25;;;24.10;71.90;;;;;;4967615;28;20035;-58
2021/05/01 03:32:45;;;;;;;3.95;1.90;;;23.80;71.50;;;;;;4971848;28;20125;-59
2021/05/01 03:35:16;;;;;;;5.45;3.05;;;23.90;72.00;;;;;;4973157;28;20051;-61
2021/05/01 03:37:43;;;;;;;8.02;3.20;;;23.70;72.70;;;;;;4969540;28;20050;-64
2021/05/01 03:40:12;;;;;;;6.88;3.60;;;23.50;73.70;;;;;;4966251;28;20014;-61
2021/05/01 03:42:40;;;;;;;4.78;2.17;;;23.40;73.90;;;;;;4971370;28;20541;-62
2021/05/01 03:45:08;;;;;;;8.05;3.92;;;23.40;74.70;;;;;;4952062;28;20093;-63
2021/05/01 03:47:36;;;;;;;4.32;2.58;;;23.40;74.70;;;;;;4970386;28;20477;-62
2021/05/01 03:50:04;;;;;;;9.88;5.80;;;23.40;76.00;;;;;;4964502;28;20470;-63
2021/05/01 03:52:31;;;;;;;36.00;5.05;;;23.30;76.10;;;;;;4970539;28;20194;-63
2021/05/01 03:54:59;;;;;;;10.20;3.92;;;23.40;76.10;;;;;;4970305;28;20183;-64
2021/05/01 03:57:26;;;;;;;28.90;4.97;;;23.50;75.70;;;;;;4970408;28;20026;-66
2021/05/01 03:59:54;;;;;;;5.70;3.30;;;23.60;76.80;;;;;;4965733;28;20435;-62
2021/05/01 04:02:21;;;;;;;7.40;3.65;;;23.60;77.10;;;;;;4969383;28;20031;-64
2021/05/01 04:04:48;;;;;;;12.95;6.72;;;23.70;76.30;;;;;;4953614;28;20031;-62
2021/05/01 04:07:16;;;;;;;17.65;8.52;;;23.90;76.40;;;;;;4968877;28;20038;-63
2021/05/01 04:09:43;;;;;;;13.50;4.22;;;23.70;76.30;;;;;;4966218;28;20053;-64
2021/05/01 04:12:11;;;;;;;17.90;6.65;;;23.80;75.40;;;;;;4970720;28;20023;-65
2021/05/01 04:14:38;;;;;;;6.50;4.60;;;23.90;75.50;;;;;;4965903;28;20556;-65
2021/05/01 04:17:05;;;;;;;8.52;3.60;;;23.80;75.60;;;;;;4969857;28;20039;-63
2021/05/01 04:19:33;;;;;;;7.40;3.92;;;23.90;75.50;;;;;;4966075;28;20447;-64
2021/05/01 04:22:05;;;;;;;16.08;6.72;;;24.00;76.00;;;;;;4967935;28;20047;-64
2021/05/01 04:24:32;;;;;;;;;;;24.30;75.80;;;;;;4969923;28;20094;-71
2021/05/01 04:27:00;;;;;;;12.15;3.72;;;24.40;75.60;;;;;;4968682;28;19940;-64
2021/05/01 04:29:28;;;;;;;14.80;4.97;;;24.40;74.90;;;;;;4966384;28;20390;-64
2021/05/01 04:31:56;;;;;;;5.60;2.63;;;24.40;75.40;;;;;;4971201;28;20026;-63
2021/05/01 04:34:23;;;;;;;13.10;3.17;;;24.50;75.50;;;;;;4952694;28;20047;-66
2021/05/01 04:36:51;;;;;;;10.95;3.58;;;24.40;75.40;;;;;;4969530;28;20058;-65
2021/05/01 04:39:18;;;;;;;15.80;3.28;;;24.40;75.20;;;;;;4969787;28;20509;-70
2021/05/01 04:41:47;;;;;;;10.60;2.22;;;24.30;75.20;;;;;;4968722;28;20042;-65
2021/05/01 04:44:15;;;;;;;7.00;1.95;;;24.20;75.40;;;;;;4954565;28;20145;-61
2021/05/01 04:46:42;;;;;;;7.32;1.83;;;24.10;75.90;;;;;;4965333;28;20193;-67
2021/05/01 04:49:10;;;;;;;7.45;2.20;;;24.20;76.40;;;;;;4971130;28;20097;-65
2021/05/01 04:51:37;;;;;;;14.32;2.85;;;24.30;76.10;;;;;;4968007;28;20110;-69
2021/05/01 04:54:05;;;;;;;15.65;2.40;;;24.30;77.30;;;;;;4971727;28;20114;-67
2021/05/01 04:56:32;;;;;;;9.85;2.55;;;24.50;77.10;;;;;;4970652;28;20034;-71
2021/05/01 04:59:00;;;;;;;23.83;3.17;;;24.40;77.80;;;;;;4971737;28;20034;-70
2021/05/01 05:01:27;;;;;;;11.07;3.42;;;24.40;78.40;;;;;;4965670;28;20433;-73
2021/05/01 05:03:55;;;;;;;9.07;2.55;;;24.40;78.10;;;;;;4953588;28;20576;-70
2021/05/01 05:06:23;;;;;;;8.88;2.38;;;24.30;77.40;;;;;;4969909;28;20038;-67
2021/05/01 05:08:51;;;;;;;9.00;2.13;;;24.20;77.00;;;;;;4954966;28;20148;-67
2021/05/01 05:11:19;;;;;;;5.25;2.20;;;24.10;77.10;;;;;;4967242;28;20038;-69
2021/05/01 05:13:47;;;;;;;12.38;2.10;;;24.00;77.30;;;;;;4970558;28;20031;-75
2021/05/01 05:16:14;;;;;;;11.23;2.33;;;24.20;78.70;;;;;;4969398;28;20078;-73
2021/05/01 05:18:42;;;;;;;13.07;2.85;;;24.30;79.60;;;;;;4969963;28;20089;-64
2021/05/01 05:21:09;;;;;;;8.38;1.50;;;24.30;79.90;;;;;;4967318;28;20091;-66
2021/05/01 05:23:37;;;;;;;4.72;1.50;;;24.20;78.90;;;;;;4952341;28;20059;-66
2021/05/01 05:26:04;;;;;;;10.40;2.72;;;24.20;80.00;;;;;;4970506;28;20482;-61
2021/05/01 05:28:31;;;;;;;10.38;3.40;;;24.10;80.10;;;;;;4957340;28;20034;-63
2021/05/01 05:30:58;;;;;;;24.08;11.85;;;24.00;79.90;;;;;;4965953;28;20102;-66
2021/05/01 05:33:26;;;;;;;19.58;10.32;;;23.90;81.10;;;;;;4968779;28;20019;-70
2021/05/01 05:35:53;;;;;;;22.52;11.93;;;23.90;80.90;;;;;;4967032;28;20038;-68
2021/05/01 05:38:20;;;;;;;17.80;11.60;;;23.90;82.10;;;;;;4969483;28;20081;-64
2021/05/01 05:40:48;;;;;;;16.00;7.43;;;23.80;82.40;;;;;;4964820;28;20379;-62
2021/05/01 05:43:15;;;;;;;17.17;9.50;;;23.70;82.40;;;;;;4968839;28;20061;-66
2021/05/01 05:45:45;;;;;;;19.05;9.55;;;23.60;82.10;;;;;;4967341;28;20035;-62
2021/05/01 05:48:13;;;;;;;17.50;8.07;;;23.60;83.80;;;;;;4969077;28;20071;-62
2021/05/01 05:50:40;;;;;;;20.88;15.88;;;23.60;84.50;;;;;;4964053;28;20051;-66
2021/05/01 05:53:07;;;;;;;19.50;13.07;;;23.70;83.10;;;;;;4971853;28;20031;-65
2021/05/01 05:55:35;;;;;;;23.98;10.45;;;23.70;82.90;;;;;;4955941;28;20054;-64
2021/05/01 05:58:02;;;;;;;15.10;8.05;;;23.70;83.60;;;;;;4954898;28;20119;-65
2021/05/01 06:00:30;;;;;;;47.38;10.40;;;23.60;84.80;;;;;;4971423;28;20069;-64
2021/05/01 06:03:01;;;;;;;18.67;8.07;;;23.80;86.60;;;;;;4960730;28;20029;-65
2021/05/01 06:05:38;;;;;;;14.40;6.22;;;24.10;84.30;;;;;;4970536;28;20077;-66
2021/05/01 06:08:07;;;;;;;21.65;12.05;;;24.20;82.20;;;;;;4962381;28;20086;-66
2021/05/01 06:10:37;;;;;;;22.75;11.98;;;24.30;81.70;;;;;;4966628;28;20054;-65
2021/05/01 06:13:05;;;;;;;23.25;12.88;;;24.50;81.20;;;;;;4960673;28;20059;-65
2021/05/01 06:15:33;;;;;;;18.88;9.15;;;24.60;80.70;;;;;;4962480;28;20035;-68
2021/05/01 06:18:02;;;;;;;11.10;8.15;;;24.50;80.60;;;;;;4971459;28;20114;-64
2021/05/01 06:20:32;;;;;;;11.25;6.03;;;24.50;81.10;;;;;;4971024;28;20490;-62
2021/05/01 06:23:01;;;;;;;10.38;5.43;;;24.40;80.50;;;;;;4971429;28;20034;-62
2021/05/01 06:25:29;;;;;;;8.10;4.90;;;24.40;80.20;;;;;;4956739;28;20364;-62
2021/05/01 06:27:57;;;;;;;16.02;4.05;;;24.20;81.60;;;;;;4955945;28;20043;-63
2021/05/01 06:30:25;;;;;;;8.88;3.63;;;24.10;81.50;;;;;;4954869;28;20059;-62
2021/05/01 06:32:52;;;;;;;11.95;3.78;;;24.00;82.00;;;;;;4956240;28;20097;-63
2021/05/01 06:35:21;;;;;;;12.38;2.70;;;23.90;82.80;;;;;;4955665;28;20027;-63
2021/05/01 06:37:51;;;;;;;11.00;2.70;;;23.80;82.00;;;;;;4964725;28;20020;-65
2021/05/01 06:40:22;;;;;;;10.68;2.92;;;23.70;82.10;;;;;;4958397;28;20387;-63
2021/05/01 06:43:01;;;;;;;11.63;2.97;;;23.70;83.10;;;;;;4965673;28;20065;-66
2021/05/01 06:45:30;;;;;;;6.90;2.40;;;23.70;83.50;;;;;;4961350;28;20059;-63
2021/05/01 06:48:04;;;;;;;27.42;3.45;;;23.70;83.90;;;;;;4970544;28;20098;-68
2021/05/01 06:50:33;;;;;;;27.70;4.85;;;23.60;84.80;;;;;;4972803;28;20046;-64
2021/05/01 06:53:01;;;;;;;17.98;3.30;;;23.70;85.50;;;;;;4958935;28;20058;-63
2021/05/01 06:55:32;;;;;;;14.60;2.25;;;23.50;84.90;;;;;;4972619;28;20038;-67
2021/05/01 06:58:01;;;;;;;11.80;3.10;;;23.40;84.00;;;;;;4965391;28;20038;-66
2021/05/01 07:00:30;;;;;;;10.07;2.15;;;23.20;85.10;;;;;;4975335;28;20484;-66
2021/05/01 07:03:09;;;;;;;9.70;1.98;;;23.20;84.30;;;;;;4954746;29;20030;-66
2021/05/01 07:05:38;;;;;;;10.52;2.92;;;23.20;84.90;;;;;;4969317;28;20035;-68
2021/05/01 07:08:07;;;;;;;14.40;2.70;;;23.10;84.90;;;;;;4964938;28;20039;-66
2021/05/01 07:10:35;;;;;;;19.65;2.40;;;23.10;85.40;;;;;;4958600;28;20107;-63
2021/05/01 07:13:04;;;;;;;15.15;2.20;;;23.10;85.50;;;;;;4953049;28;20170;-67
2021/05/01 07:15:32;;;;;;;14.40;2.55;;;23.10;85.60;;;;;;4976304;28;20117;-61
2021/05/01 07:17:59;;;;;;;9.98;2.35;;;23.10;86.20;;;;;;4973650;28;20038;-67
2021/05/01 07:20:26;;;;;;;16.25;2.30;;;23.10;86.60;;;;;;4956378;28;20035;-63
2021/05/01 07:22:54;;;;;;;20.60;2.30;;;23.20;87.00;;;;;;4957325;28;20023;-67
2021/05/01 07:25:22;;;;;;;12.82;2.05;;;23.10;86.90;;;;;;4973773;28;20034;-64
2021/05/01 07:27:56;;;;;;;14.50;2.42;;;23.20;87.60;;;;;;4974245;28;20043;-67
2021/05/01 07:30:28;;;;;;;17.42;3.22;;;23.20;86.80;;;;;;4956391;29;20031;-65
2021/05/01 07:33:09;;;;;;;11.63;2.28;;;23.20;87.40;;;;;;4973307;28;20033;-66
2021/05/01 07:35:39;;;;;;;23.63;2.75;;;23.10;86.80;;;;;;4962113;28;20386;-63
2021/05/01 07:38:12;;;;;;;12.45;2.42;;;23.00;84.90;;;;;;4966369;28;20074;-63
2021/05/01 07:40:40;;;;;;;15.05;2.33;;;23.00;87.50;;;;;;4960835;28;20109;-64
2021/05/01 07:43:08;;;;;;;9.77;2.63;;;23.00;86.60;;;;;;4970043;28;20089;-70
2021/05/01 07:45:36;;;;;;;11.63;2.70;;;23.10;88.10;;;;;;4959196;28;20062;-67
2021/05/01 07:48:09;;;;;;;13.95;2.42;;;23.10;89.10;;;;;;4958301;28;20569;-66
2021/05/01 07:50:36;;;;;;;20.52;2.92;;;23.00;88.40;;;;;;4958122;28;20059;-66
2021/05/01 07:53:05;;;;;;;18.42;2.22;;;23.00;86.90;;;;;;4974246;28;20030;-65
2021/05/01 07:55:33;;;;;;;14.35;2.60;;;23.00;88.50;;;;;;4974520;28;20026;-69
2021/05/01 07:58:00;;;;;;;16.25;2.42;;;23.00;88.40;;;;;;4964115;28;20505;-62
2021/05/01 08:00:28;;;;;;;10.02;2.15;;;23.10;88.10;;;;;;4963137;28;20023;-63
2021/05/01 08:02:55;;;;;;;31.58;3.55;;;23.10;88.40;;;;;;4968835;28;20122;-65
2021/05/01 08:05:22;;;;;;;18.95;2.60;;;23.10;87.60;;;;;;4957751;28;20035;-61
2021/05/01 08:07:50;;;;;;;23.45;3.75;;;23.10;87.60;;;;;;4966330;28;20043;-66
2021/05/01 08:10:17;;;;;;;14.30;2.05;;;23.00;88.60;;;;;;4969856;28;20046;-69
2021/05/01 08:12:45;;;;;;;7.65;1.92;;;23.00;86.00;;;;;;4963899;28;20389;-66
2021/05/01 08:15:13;;;;;;;11.05;1.95;;;22.90;85.20;;;;;;4961170;28;20027;-69
2021/05/01 08:17:41;;;;;;;10.15;1.83;;;22.80;86.00;;;;;;4961463;28;20039;-70
2021/05/01 08:20:11;;;;;;;10.35;1.60;;;22.70;85.60;;;;;;4974509;28;20446;-64
2021/05/01 08:22:39;;;;;;;17.15;1.90;;;22.70;85.90;;;;;;4971170;28;20106;-65
2021/05/01 08:25:08;;;;;;;10.20;1.90;;;22.60;86.90;;;;;;4955364;28;20035;-64
2021/05/01 08:27:36;;;;;;;6.78;2.30;;;22.50;86.90;;;;;;4966609;28;20035;-63
2021/05/01 08:30:07;;;;;;;12.82;1.52;;;22.50;87.20;;;;;;4952337;28;20049;-65
2021/05/01 08:32:34;;;;;;;8.45;1.42;;;22.40;87.70;;;;;;4969171;28;20034;-63
2021/05/01 08:35:02;;;;;;;10.95;1.75;;;22.40;87.90;;;;;;4971174;28;20027;-64
2021/05/01 08:37:30;;;;;;;10.82;2.00;;;22.40;87.30;;;;;;4967557;28;20035;-69
2021/05/01 08:39:57;;;;;;;14.70;2.05;;;22.40;87.70;;;;;;4971993;28;20051;-63
2021/05/01 08:42:27;;;;;;;7.40;1.63;;;22.30;87.80;;;;;;4967131;28;20126;-63
2021/05/01 08:45:06;;;;;;;7.07;1.38;;;22.30;88.00;;;;;;4968550;28;20035;-69
2021/05/01 08:47:35;;;;;;;6.90;1.48;;;22.30;87.90;;;;;;4969362;28;20065;-66
2021/05/01 08:50:32;;;;;;;8.25;1.80;;;22.30;87.70;;;;;;4954054;28;20069;-65
2021/05/01 08:53:05;;;;;;;6.85;1.70;;;22.30;88.00;;;;;;4970132;28;20165;-64
2021/05/01 08:55:36;;;;;;;8.90;2.03;;;22.30;88.00;;;;;;4968310;28;20046;-60
2021/05/01 08:58:05;;;;;;;8.60;1.55;;;22.20;88.10;;;;;;4966331;28;20046;-60
2021/05/01 09:00:33;;;;;;;7.28;1.80;;;22.20;87.90;;;;;;4971645;28;20407;-62
2021/05/01 09:03:08;;;;;;;5.85;1.50;;;22.20;88.00;;;;;;4971152;28;20128;-65
2021/05/01 09:05:37;;;;;;;5.88;1.60;;;22.20;88.10;;;;;;4970034;28;20039;-67
2021/05/01 09:08:09;;;;;;;11.30;1.88;;;22.20;88.10;;;;;;4964800;28;20120;-67
2021/05/01 09:10:54;;;;;;;10.13;2.10;;;22.10;88.00;;;;;;4968060;28;20114;-68
2021/05/01 09:13:24;;;;;;;5.95;1.20;;;22.10;88.10;;;;;;4965598;28;20085;-62
2021/05/01 09:16:11;;;;;;;9.10;1.30;;;22.10;88.20;;;;;;4968361;28;20470;-63
2021/05/01 09:18:53;;;;;;;5.95;1.52;;;22.10;88.30;;;;;;4968243;28;20383;-63
2021/05/01 09:21:21;;;;;;;4.10;1.38;;;22.00;88.30;;;;;;4967869;28;20031;-64
2021/05/01 09:23:50;;;;;;;9.15;2.03;;;22.00;88.20;;;;;;4968938;28;20107;-66
2021/05/01 09:26:20;;;;;;;10.60;2.67;;;22.00;88.30;;;;;;4964012;28;20022;-66
2021/05/01 09:28:50;;;;;;;6.65;1.50;;;22.00;88.30;;;;;;4953452;28;20077;-58
2021/05/01 09:31:20;;;;;;;4.38;1.30;;;22.00;88.30;;;;;;4969943;28;20038;-64
2021/05/01 09:33:52;;;;;;;7.65;1.67;;;22.00;88.30;;;;;;4953877;28;20038;-59
2021/05/01 09:36:24;;;;;;;7.82;1.65;;;22.00;88.30;;;;;;4965722;28;20035;-65
2021/05/01 09:38:55;;;;;;;7.90;1.23;;;22.00;88.40;;;;;;4968635;28;20038;-63
2021/05/01 09:41:26;;;;;;;3.70;1.35;;;22.00;88.40;;;;;;4968648;28;20073;-66
2021/05/01 09:44:04;;;;;;;5.93;1.40;;;22.00;88.40;;;;;;4969693;28;20039;-63
2021/05/01 09:46:53;;;;;;;4.13;1.10;;;21.90;88.40;;;;;;4963526;28;20137;-56
2021/05/01 09:49:27;;;;;;;5.22;1.25;;;21.90;88.40;;;;;;4967700;28;20521;-60
2021/05/01 09:51:55;;;;;;;7.05;1.30;;;21.90;88.40;;;;;;4970410;28;20121;-63
2021/05/01 09:54:27;;;;;;;2.80;1.20;;;21.80;88.30;;;;;;4968925;28;20034;-66
2021/05/01 09:56:57;;;;;;;2.53;1.05;;;21.80;88.40;;;;;;4964849;28;20031;-63
2021/05/01 09:59:40;;;;;;;4.25;1.33;;;21.90;88.40;;;;;;4969914;28;20396;-63
2021/05/01 10:02:31;;;;;;;6.63;1.50;;;21.80;88.40;;;;;;4970371;28;20085;-61
2021/05/01 10:05:13;;;;;;;4.35;1.52;;;21.80;88.40;;;;;;4966595;28;20051;-63
2021/05/01 10:07:51;;;;;;;6.18;1.67;;;21.80;88.40;;;;;;4964806;28;20034;-63
2021/05/01 10:10:18;;;;;;;3.17;1.42;;;21.70;89.00;;;;;;4958784;28;20030;-62
2021/05/01 10:12:48;;;;;;;7.55;2.00;;;21.70;88.40;;;;;;4971196;28;20027;-62
2021/05/01 10:15:17;;;;;;;4.68;1.10;;;21.70;88.50;;;;;;4968317;28;20101;-60
2021/05/01 10:17:47;;;;;;;3.33;1.25;;;21.70;88.50;;;;;;4962478;28;20220;-65
2021/05/01 10:20:15;;;;;;;4.65;1.58;;;21.70;88.60;;;;;;4950640;28;20027;-61
2021/05/01 10:22:47;;;;;;;3.90;1.35;;;21.70;88.60;;;;;;4949988;28;20048;-61
2021/05/01 10:25:26;;;;;;;4.70;1.02;;;21.70;88.50;;;;;;4965462;28;20034;-64
2021/05/01 10:28:00;;;;;;;5.20;1.60;;;21.60;88.60;;;;;;4963955;28;20460;-62
2021/05/01 10:30:29;;;;;;;7.30;1.33;;;21.60;88.60;;;;;;4967750;28;20058;-63
2021/05/01 10:33:23;;;;;;;7.50;1.33;;;21.60;88.60;;;;;;4967854;28;20019;-60
2021/05/01 10:35:59;;;;;;;4.82;1.27;;;21.60;88.50;;;;;;4966173;28;20037;-64
2021/05/01 10:38:27;;;;;;;6.47;1.38;;;21.60;88.40;;;;;;4965456;28;20035;-64
2021/05/01 10:40:57;;;;;;;4.38;1.35;;;21.60;89.10;;;;;;4968403;28;20122;-64
2021/05/01 10:43:27;;;;;;;5.78;1.25;;;21.60;88.40;;;;;;4969414;28;20021;-64
2021/05/01 10:46:12;;;;;;;4.85;1.50;;;21.60;88.40;;;;;;4967363;28;20034;-62
2021/05/01 10:48:48;;;;;;;5.57;1.35;;;21.60;88.30;;;;;;4969136;28;20605;-66
2021/05/01 10:51:18;;;;;;;3.95;1.08;;;21.60;88.20;;;;;;4970113;28;20502;-64
2021/05/01 10:53:48;;;;;;;3.28;1.35;;;21.60;88.10;;;;;;4967196;28;20055;-65
2021/05/01 10:56:26;;;;;;;3.10;1.30;;;21.60;88.20;;;;;;4967639;28;20050;-68
2021/05/01 10:58:54;;;;;;;3.60;1.40;;;21.50;88.10;;;;;;4954370;28;20031;-63
2021/05/01 11:01:48;;;;;;;2.65;0.93;;;21.50;88.20;;;;;;4968871;28;20041;-61
2021/05/01 11:04:19;;;;;;;3.47;1.42;;;21.50;88.20;;;;;;4966610;28;20522;-63
2021/05/01 11:07:11;;;;;;;4.22;1.08;;;21.50;88.20;;;;;;4965055;28;20043;-63
2021/05/01 11:09:44;;;;;;;5.40;1.23;;;21.50;88.00;;;;;;4968508;28;20118;-65
2021/05/01 11:12:16;;;;;;;4.10;1.20;;;21.50;88.10;;;;;;4969163;28;20101;-66
2021/05/01 11:15:07;;;;;;;3.95;1.35;;;21.50;88.10;;;;;;4966798;28;20030;-68
2021/05/01 11:17:34;;;;;;;3.40;1.15;;;21.50;88.10;;;;;;4965066;28;20058;-66
2021/05/01 11:20:12;;;;;;;2.55;1.10;;;21.50;88.10;;;;;;4968784;28;20039;-64
2021/05/01 11:22:43;;;;;;;2.72;1.08;;;21.50;88.20;;;;;;4968008;28;20035;-62
2021/05/01 11:25:15;;;;;;;3.33;1.30;;;21.40;87.90;;;;;;4968047;28;20190;-62
2021/05/01 11:27:44;;;;;;;5.57;1.30;;;21.50;88.00;;;;;;4965985;28;20074;-64
2021/05/01 11:30:14;;;;;;;2.65;0.90;;;21.50;88.00;;;;;;4966965;28;20413;-64
2021/05/01 11:32:41;;;;;;;4.50;1.15;;;21.50;88.10;;;;;;4968023;28;20105;-61
2021/05/01 11:35:12;;;;;;;4.75;1.63;;;21.40;88.00;;;;;;4969198;28;20022;-64
2021/05/01 11:37:47;;;;;;;2.75;1.20;;;21.40;88.00;;;;;;4965651;28;20023;-64
2021/05/01 11:40:16;;;;;;;2.97;1.40;;;21.40;87.80;;;;;;4970080;28;20548;-67
2021/05/01 11:42:46;;;;;;;3.00;0.98;;;21.40;88.00;;;;;;4973358;28;20038;-63
2021/05/01 11:45:34;;;;;;;5.38;1.40;;;21.40;88.10;;;;;;4968114;28;20111;-64
2021/05/01 11:48:05;;;;;;;7.68;1.45;;;21.40;87.80;;;;;;4959617;28;20034;-64
2021/05/01 11:50:34;;;;;;;4.28;1.42;;;21.40;87.90;;;;;;4958802;28;20078;-65
2021/05/01 11:53:37;;;;;;;3.63;1.05;;;21.30;88.40;;;;;;4958144;28;20043;-66
2021/05/01 11:56:13;;;;;;;2.80;0.95;;;21.30;88.30;;;;;;4965681;28;20035;-64
2021/05/01 11:58:42;;;;;;;4.88;0.93;;;21.30;88.20;;;;;;4972773;28;20031;-64
2021/05/01 12:01:22;;;;;;;2.25;1.20;;;21.30;88.30;;;;;;4964139;28;20031;-65
2021/05/01 12:04:04;;;;;;;5.10;1.50;;;21.20;88.20;;;;;;4964769;28;20110;-65
2021/05/01 12:06:40;;;;;;;4.07;1.17;;;21.20;88.30;;;;;;4965319;28;20572;-69
2021/05/01 12:09:21;;;;;;;2.28;0.90;;;21.20;88.40;;;;;;4973140;28;20023;-65
2021/05/01 12:11:49;;;;;;;2.35;1.10;;;21.20;88.40;;;;;;4962705;28;20066;-65
2021/05/01 12:14:19;;;;;;;3.40;1.45;;;21.20;88.40;;;;;;4974255;28;20027;-64
2021/05/01 12:16:46;;;;;;;3.28;1.65;;;21.20;88.40;;;;;;4962878;28;20030;-66
2021/05/01 12:19:26;;;;;;;3.65;1.48;;;21.10;88.60;;;;;;4970409;28;20023;-62
2021/05/01 12:21:55;;;;;;;4.55;1.50;;;21.10;88.50;;;;;;4957396;28;20031;-63
2021/05/01 12:24:32;;;;;;;5.20;1.27;;;21.10;88.50;;;;;;4958778;28;20033;-66
2021/05/01 12:27:00;;;;;;;2.38;1.33;;;21.10;88.80;;;;;;4960806;28;20033;-64
2021/05/01 12:29:33;;;;;;;3.05;1.00;;;21.10;88.80;;;;;;4967822;28;20066;-64
2021/05/01 12:32:07;;;;;;;5.80;1.63;;;21.00;88.80;;;;;;4966217;28;20441;-64
2021/05/01 12:34:50;;;;;;;3.83;1.38;;;21.00;88.80;;;;;;4961693;28;20041;-65
2021/05/01 12:37:18;;;;;;;2.45;1.13;;;21.00;89.00;;;;;;4961619;28;20058;-62
2021/05/01 12:39:46;;;;;;;2.83;1.08;;;20.90;89.10;;;;;;4956460;28;20031;-63
2021/05/01 12:42:35;;;;;;;4.00;1.25;;;21.00;89.10;;;;;;4957731;28;20038;-64
2021/05/01 12:45:23;;;;;;;2.90;1.30;;;21.00;89.00;;;;;;4970419;28;20421;-64
2021/05/01 12:47:50;;;;;;;6.13;1.58;;;20.90;89.10;;;;;;4968299;28;20054;-65
2021/05/01 12:50:28;;;;;;;3.08;1.40;;;20.90;89.20;;;;;;4956431;28;20137;-64
2021/05/01 12:53:28;;;;;;;2.97;1.08;;;20.90;89.00;;;;;;4956766;28;20035;-64
2021/05/01 12:56:40;;;;;;;6.32;1.20;;;20.90;89.00;;;;;;4964461;28;20029;-63
2021/05/01 12:59:22;;;;;;;4.28;1.13;;;20.90;89.10;;;;;;4965717;28;20177;-65